sensor_id;sensor_type;location;lat;lon;timestamp;pressure;altitude;pressure_sealevel;temperature;humidity
69909;BME280;57190;47.918;8.112;2022-10-16T00:01:17;90856.06;;;11.29;88.43
69909;BME280;57190;47.918;8.112;2022-10-16T00:03:44;90856.59;;;11.31;88.42
69909;BME280;57190;47.918;8.112;2022-10-16T00:06:11;90846.47;;;11.28;88.60
69909;BME280;57190;47.918;8.112;2022-10-16T00:08:37;90852.34;;;11.20;88.41
69909;BME280;57190;47.918;8.112;2022-10-16T00:11:06;90854.75;;;11.21;88.25
69909;BME280;57190;47.918;8.112;2022-10-16T00:13:33;90843.81;;;11.17;88.10
69909;BME280;57190;47.918;8.112;2022-10-16T00:16:00;90854.50;;;11.17;88.48
69909;BME280;57190;47.918;8.112;2022-10-16T00:18:26;90852.63;;;11.23;88.45
69909;BME280;57190;47.918;8.112;2022-10-16T00:20:52;90845.13;;;11.30;88.83
69909;BME280;57190;47.918;8.112;2022-10-16T00:23:18;90849.38;;;11.37;88.75
69909;BME280;57190;47.918;8.112;2022-10-16T00:25:44;90853.09;;;11.41;89.02
69909;BME280;57190;47.918;8.112;2022-10-16T00:28:10;90856.03;;;11.44;89.38
69909;BME280;57190;47.918;8.112;2022-10-16T00:30:40;90852.81;;;11.42;88.60
69909;BME280;57190;47.918;8.112;2022-10-16T00:33:05;90859.00;;;11.32;88.60
69909;BME280;57190;47.918;8.112;2022-10-16T00:35:31;90860.06;;;11.31;88.45
69909;BME280;57190;47.918;8.112;2022-10-16T00:37:56;90859.00;;;11.32;88.66
69909;BME280;57190;47.918;8.112;2022-10-16T00:40:21;90857.41;;;11.37;88.77
69909;BME280;57190;47.918;8.112;2022-10-16T00:42:47;90864.03;;;11.44;89.03
69909;BME280;57190;47.918;8.112;2022-10-16T00:45:12;90859.75;;;11.54;89.33
69909;BME280;57190;47.918;8.112;2022-10-16T00:47:41;90865.88;;;11.54;89.24
69909;BME280;57190;47.918;8.112;2022-10-16T00:50:28;90868.00;;;11.57;89.37
69909;BME280;57190;47.918;8.112;2022-10-16T00:52:56;90862.13;;;11.60;89.09
69909;BME280;57190;47.918;8.112;2022-10-16T00:55:23;90862.44;;;11.48;88.58
69909;BME280;57190;47.918;8.112;2022-10-16T00:57:49;90863.81;;;11.30;87.97
69909;BME280;57190;47.918;8.112;2022-10-16T01:00:19;90867.59;;;11.14;88.43
69909;BME280;57190;47.918;8.112;2022-10-16T01:02:52;90870.00;;;11.10;88.84
69909;BME280;57190;47.918;8.112;2022-10-16T01:05:18;90880.13;;;11.08;88.75
69909;BME280;57190;47.918;8.112;2022-10-16T01:08:08;90887.09;;;11.14;88.54
69909;BME280;57190;47.918;8.112;2022-10-16T01:10:40;90886.53;;;11.17;88.78
69909;BME280;57190;47.918;8.112;2022-10-16T01:13:33;90890.56;;;11.20;88.98
69909;BME280;57190;47.918;8.112;2022-10-16T01:16:11;90890.00;;;11.23;88.84
69909;BME280;57190;47.918;8.112;2022-10-16T01:18:46;90891.31;;;11.26;89.07
69909;BME280;57190;47.918;8.112;2022-10-16T01:21:20;90891.56;;;11.29;89.43
69909;BME280;57190;47.918;8.112;2022-10-16T01:32:30;90875.53;;;11.45;89.27
69909;BME280;57190;47.918;8.112;2022-10-16T01:35:08;90872.31;;;11.48;89.01
69909;BME280;57190;47.918;8.112;2022-10-16T01:37:46;90882.47;;;11.41;88.87
69909;BME280;57190;47.918;8.112;2022-10-16T01:40:16;90893.44;;;11.34;89.03
69909;BME280;57190;47.918;8.112;2022-10-16T01:42:50;90892.13;;;11.26;88.80
69909;BME280;57190;47.918;8.112;2022-10-16T01:45:18;90883.03;;;11.32;89.02
69909;BME280;57190;47.918;8.112;2022-10-16T01:47:46;90882.25;;;11.32;88.91
69909;BME280;57190;47.918;8.112;2022-10-16T01:50:15;90890.25;;;11.27;88.94
69909;BME280;57190;47.918;8.112;2022-10-16T01:52:44;90900.94;;;11.27;88.89
69909;BME280;57190;47.918;8.112;2022-10-16T01:55:17;90891.59;;;11.24;88.68
69909;BME280;57190;47.918;8.112;2022-10-16T01:57:46;90880.09;;;11.29;89.11
69909;BME280;57190;47.918;8.112;2022-10-16T02:00:14;90875.56;;;11.35;88.89
69909;BME280;57190;47.918;8.112;2022-10-16T02:02:45;90876.91;;;11.32;88.94
69909;BME280;57190;47.918;8.112;2022-10-16T02:06:09;90888.13;;;11.29;88.59
69909;BME280;57190;47.918;8.112;2022-10-16T02:08:11;90875.88;;;11.07;87.68
69909;BME280;57190;47.918;8.112;2022-10-16T02:10:38;90858.28;;;10.91;88.22
69909;BME280;57190;47.918;8.112;2022-10-16T02:13:11;90859.88;;;10.87;88.44
69909;BME280;57190;47.918;8.112;2022-10-16T02:15:38;90868.16;;;10.85;88.44
69909;BME280;57190;47.918;8.112;2022-10-16T02:18:05;90877.25;;;10.94;88.73
69909;BME280;57190;47.918;8.112;2022-10-16T02:20:34;90877.75;;;11.07;88.60
69909;BME280;57190;47.918;8.112;2022-10-16T02:23:03;90882.81;;;11.13;88.58
69909;BME280;57190;47.918;8.112;2022-10-16T02:25:37;90875.59;;;11.14;88.52
69909;BME280;57190;47.918;8.112;2022-10-16T02:28:18;90877.47;;;11.13;88.28
69909;BME280;57190;47.918;8.112;2022-10-16T02:30:50;90878.53;;;11.02;87.71
69909;BME280;57190;47.918;8.112;2022-10-16T02:33:19;90879.09;;;11.04;88.22
69909;BME280;57190;47.918;8.112;2022-10-16T02:35:47;90887.06;;;11.09;88.86
69909;BME280;57190;47.918;8.112;2022-10-16T02:38:16;90888.16;;;11.13;88.59
69909;BME280;57190;47.918;8.112;2022-10-16T02:40:42;90889.50;;;11.11;88.61
69909;BME280;57190;47.918;8.112;2022-10-16T02:43:08;90883.63;;;11.09;88.50
69909;BME280;57190;47.918;8.112;2022-10-16T02:45:34;90882.03;;;11.03;88.51
69909;BME280;57190;47.918;8.112;2022-10-16T02:48:00;90890.03;;;11.03;89.02
69909;BME280;57190;47.918;8.112;2022-10-16T02:50:25;90892.16;;;11.06;89.46
69909;BME280;57190;47.918;8.112;2022-10-16T02:52:51;90892.16;;;11.00;88.73
69909;BME280;57190;47.918;8.112;2022-10-16T02:55:17;90899.63;;;10.88;88.05
69909;BME280;57190;47.918;8.112;2022-10-16T02:57:43;90895.91;;;10.84;88.45
69909;BME280;57190;47.918;8.112;2022-10-16T03:00:13;90904.44;;;10.96;88.82
69909;BME280;57190;47.918;8.112;2022-10-16T03:02:39;90897.78;;;10.99;89.00
69909;BME280;57190;47.918;8.112;2022-10-16T03:05:05;90896.44;;;10.96;88.91
69909;BME280;57190;47.918;8.112;2022-10-16T03:07:31;90888.69;;;11.00;89.06
69909;BME280;57190;47.918;8.112;2022-10-16T03:09:56;90896.97;;;11.04;89.07
69909;BME280;57190;47.918;8.112;2022-10-16T03:12:28;90898.81;;;11.08;89.10
69909;BME280;57190;47.918;8.112;2022-10-16T03:14:55;90907.09;;;11.07;89.38
69909;BME280;57190;47.918;8.112;2022-10-16T03:17:22;90905.50;;;11.11;89.43
69909;BME280;57190;47.918;8.112;2022-10-16T03:19:47;90902.25;;;11.29;89.08
69909;BME280;57190;47.918;8.112;2022-10-16T03:22:13;90897.19;;;11.33;88.83
69909;BME280;57190;47.918;8.112;2022-10-16T03:24:38;90901.75;;;11.22;88.88
69909;BME280;57190;47.918;8.112;2022-10-16T03:27:04;90887.88;;;11.20;89.11
69909;BME280;57190;47.918;8.112;2022-10-16T03:29:29;90891.06;;;11.17;89.29
69909;BME280;57190;47.918;8.112;2022-10-16T03:31:56;90885.75;;;11.17;89.25
69909;BME280;57190;47.918;8.112;2022-10-16T03:34:21;90897.75;;;11.20;89.44
69909;BME280;57190;47.918;8.112;2022-10-16T03:36:47;90894.53;;;11.17;89.23
69909;BME280;57190;47.918;8.112;2022-10-16T03:39:13;90891.38;;;11.05;88.74
69909;BME280;57190;47.918;8.112;2022-10-16T03:41:38;90894.28;;;10.98;88.83
69909;BME280;57190;47.918;8.112;2022-10-16T03:44:04;90899.09;;;10.96;88.65
69909;BME280;57190;47.918;8.112;2022-10-16T03:46:29;90898.31;;;10.96;89.05
69909;BME280;57190;47.918;8.112;2022-10-16T03:48:55;90897.53;;;10.95;89.42
69909;BME280;57190;47.918;8.112;2022-10-16T03:51:21;90890.03;;;10.97;89.29
69909;BME280;57190;47.918;8.112;2022-10-16T03:53:46;90896.69;;;11.00;89.46
69909;BME280;57190;47.918;8.112;2022-10-16T03:56:13;90901.78;;;11.01;89.63
69909;BME280;57190;47.918;8.112;2022-10-16T03:58:38;90897.22;;;11.02;89.43
69909;BME280;57190;47.918;8.112;2022-10-16T04:01:04;90890.53;;;11.05;89.53
69909;BME280;57190;47.918;8.112;2022-10-16T04:03:29;90899.09;;;11.07;89.72
69909;BME280;57190;47.918;8.112;2022-10-16T04:05:55;90901.22;;;11.05;89.69
69909;BME280;57190;47.918;8.112;2022-10-16T04:08:20;90888.97;;;10.98;89.10
69909;BME280;57190;47.918;8.112;2022-10-16T04:10:46;90893.50;;;10.93;89.18
69909;BME280;57190;47.918;8.112;2022-10-16T04:13:12;90895.34;;;10.97;89.35
69909;BME280;57190;47.918;8.112;2022-10-16T04:15:37;90895.91;;;10.99;89.04
69909;BME280;57190;47.918;8.112;2022-10-16T04:18:04;90905.25;;;10.97;89.85
69909;BME280;57190;47.918;8.112;2022-10-16T04:20:29;90909.50;;;11.03;89.58
69909;BME280;57190;47.918;8.112;2022-10-16T04:22:55;90906.56;;;11.10;89.50
69909;BME280;57190;47.918;8.112;2022-10-16T04:25:21;90901.25;;;11.10;89.36
69909;BME280;57190;47.918;8.112;2022-10-16T04:27:47;90911.91;;;11.15;89.08
69909;BME280;57190;47.918;8.112;2022-10-16T04:30:12;90914.31;;;11.22;89.08
69909;BME280;57190;47.918;8.112;2022-10-16T04:32:38;90908.69;;;11.23;89.31
69909;BME280;57190;47.918;8.112;2022-10-16T04:35:03;90916.69;;;11.33;88.81
69909;BME280;57190;47.918;8.112;2022-10-16T04:37:29;90924.41;;;11.35;88.90
69909;BME280;57190;47.918;8.112;2022-10-16T04:39:54;90914.00;;;11.39;88.73
69909;BME280;57190;47.918;8.112;2022-10-16T04:42:20;90915.06;;;11.38;88.75
69909;BME280;57190;47.918;8.112;2022-10-16T04:44:46;90921.22;;;11.33;88.69
69909;BME280;57190;47.918;8.112;2022-10-16T04:47:12;90929.78;;;11.30;88.87
69909;BME280;57190;47.918;8.112;2022-10-16T04:49:38;90933.75;;;11.38;88.92
69909;BME280;57190;47.918;8.112;2022-10-16T04:52:03;90932.44;;;11.40;88.67
69909;BME280;57190;47.918;8.112;2022-10-16T04:54:29;90922.81;;;11.39;88.47
69909;BME280;57190;47.918;8.112;2022-10-16T04:56:54;90919.34;;;11.33;88.02
69909;BME280;57190;47.918;8.112;2022-10-16T04:59:21;90925.22;;;11.30;88.47
69909;BME280;57190;47.918;8.112;2022-10-16T05:01:47;90923.38;;;11.31;88.76
69909;BME280;57190;47.918;8.112;2022-10-16T05:04:13;90925.25;;;11.25;88.72
69909;BME280;57190;47.918;8.112;2022-10-16T05:06:40;90929.00;;;11.19;88.59
69909;BME280;57190;47.918;8.112;2022-10-16T05:09:06;90926.84;;;11.21;88.77
69909;BME280;57190;47.918;8.112;2022-10-16T05:11:31;90929.50;;;11.21;88.59
69909;BME280;57190;47.918;8.112;2022-10-16T05:13:57;90922.03;;;11.13;88.40
69909;BME280;57190;47.918;8.112;2022-10-16T05:16:22;90921.50;;;11.06;88.71
69909;BME280;57190;47.918;8.112;2022-10-16T05:18:48;90921.78;;;11.04;88.72
69909;BME280;57190;47.918;8.112;2022-10-16T05:21:13;90922.31;;;11.01;88.71
69909;BME280;57190;47.918;8.112;2022-10-16T05:23:39;90925.53;;;11.03;88.99
69909;BME280;57190;47.918;8.112;2022-10-16T05:26:04;90923.13;;;11.07;89.40
69909;BME280;57190;47.918;8.112;2022-10-16T05:28:30;90929.00;;;11.09;88.90
69909;BME280;57190;47.918;8.112;2022-10-16T05:30:57;90931.94;;;11.12;88.84
69909;BME280;57190;47.918;8.112;2022-10-16T05:33:24;90939.66;;;11.14;88.94
69909;BME280;57190;47.918;8.112;2022-10-16T05:35:50;90935.94;;;11.20;89.12
69909;BME280;57190;47.918;8.112;2022-10-16T05:38:16;90943.41;;;11.28;88.64
69909;BME280;57190;47.918;8.112;2022-10-16T05:40:42;90941.78;;;11.32;88.63
69909;BME280;57190;47.918;8.112;2022-10-16T05:43:07;90942.31;;;11.35;88.33
69909;BME280;57190;47.918;8.112;2022-10-16T05:45:33;90947.91;;;11.38;87.99
69909;BME280;57190;47.918;8.112;2022-10-16T05:47:59;90951.13;;;11.40;87.85
69909;BME280;57190;47.918;8.112;2022-10-16T05:50:26;90958.59;;;11.43;87.54
69909;BME280;57190;47.918;8.112;2022-10-16T05:52:52;90961.00;;;11.45;87.35
69909;BME280;57190;47.918;8.112;2022-10-16T05:55:17;90961.28;;;11.48;87.22
69909;BME280;57190;47.918;8.112;2022-10-16T05:57:43;90959.09;;;11.51;86.95
69909;BME280;57190;47.918;8.112;2022-10-16T06:00:09;90944.69;;;11.52;87.08
69909;BME280;57190;47.918;8.112;2022-10-16T06:02:35;90939.09;;;11.48;87.15
69909;BME280;57190;47.918;8.112;2022-10-16T06:05:00;90953.53;;;11.42;87.36
69909;BME280;57190;47.918;8.112;2022-10-16T06:07:25;90950.34;;;11.35;87.64
69909;BME280;57190;47.918;8.112;2022-10-16T06:09:52;90960.72;;;11.36;87.69
69909;BME280;57190;47.918;8.112;2022-10-16T06:12:18;90959.41;;;11.39;87.80
69909;BME280;57190;47.918;8.112;2022-10-16T06:14:45;90969.28;;;11.43;87.59
69909;BME280;57190;47.918;8.112;2022-10-16T06:17:13;90968.72;;;11.52;87.59
69909;BME280;57190;47.918;8.112;2022-10-16T06:19:39;90960.47;;;11.53;87.43
69909;BME280;57190;47.918;8.112;2022-10-16T06:22:05;90960.44;;;11.58;86.99
69909;BME280;57190;47.918;8.112;2022-10-16T06:24:31;90963.09;;;11.63;86.71
69909;BME280;57190;47.918;8.112;2022-10-16T06:26:57;90971.09;;;11.69;86.45
69909;BME280;57190;47.918;8.112;2022-10-16T06:29:22;90969.75;;;11.71;86.24
69909;BME280;57190;47.918;8.112;2022-10-16T06:31:48;90976.44;;;11.79;86.21
69909;BME280;57190;47.918;8.112;2022-10-16T06:34:13;90982.03;;;11.83;85.92
69909;BME280;57190;47.918;8.112;2022-10-16T06:36:39;90984.41;;;11.89;85.52
69909;BME280;57190;47.918;8.112;2022-10-16T06:39:05;90983.59;;;11.94;84.94
69909;BME280;57190;47.918;8.112;2022-10-16T06:41:33;90989.75;;;12.00;84.41
69909;BME280;57190;47.918;8.112;2022-10-16T06:43:58;90990.00;;;12.03;84.15
69909;BME280;57190;47.918;8.112;2022-10-16T06:46:26;90992.13;;;12.11;83.57
69909;BME280;57190;47.918;8.112;2022-10-16T06:48:53;91001.97;;;12.21;82.95
69909;BME280;57190;47.918;8.112;2022-10-16T06:51:21;91001.44;;;12.30;82.43
69909;BME280;57190;47.918;8.112;2022-10-16T06:53:50;91001.13;;;12.41;81.57
69909;BME280;57190;47.918;8.112;2022-10-16T06:56:18;91006.41;;;12.52;81.12
69909;BME280;57190;47.918;8.112;2022-10-16T06:58:45;91010.44;;;12.54;81.84
69909;BME280;57190;47.918;8.112;2022-10-16T07:01:12;91007.19;;;12.57;81.27
69909;BME280;57190;47.918;8.112;2022-10-16T07:03:40;91019.72;;;12.62;80.58
69909;BME280;57190;47.918;8.112;2022-10-16T07:06:08;91013.53;;;12.72;79.47
69909;BME280;57190;47.918;8.112;2022-10-16T07:08:36;91020.47;;;12.73;79.89
69909;BME280;57190;47.918;8.112;2022-10-16T07:11:08;91021.28;;;12.73;79.96
69909;BME280;57190;47.918;8.112;2022-10-16T07:13:37;91028.75;;;12.77;80.17
69909;BME280;57190;47.918;8.112;2022-10-16T07:16:08;91026.91;;;12.77;80.78
69909;BME280;57190;47.918;8.112;2022-10-16T07:18:34;91039.75;;;12.75;81.37
69909;BME280;57190;47.918;8.112;2022-10-16T07:21:07;91038.38;;;12.78;81.19
69909;BME280;57190;47.918;8.112;2022-10-16T07:23:33;91052.25;;;12.85;81.28
69909;BME280;57190;47.918;8.112;2022-10-16T07:25:59;91056.78;;;12.89;81.57
69909;BME280;57190;47.918;8.112;2022-10-16T07:28:25;91054.63;;;12.97;80.98
69909;BME280;57190;47.918;8.112;2022-10-16T07:30:50;91058.09;;;12.97;80.63
69909;BME280;57190;47.918;8.112;2022-10-16T07:33:16;91052.47;;;12.99;80.82
69909;BME280;57190;47.918;8.112;2022-10-16T07:35:54;91057.56;;;13.00;80.22
69909;BME280;57190;47.918;8.112;2022-10-16T07:38:21;91056.19;;;13.03;80.29
69909;BME280;57190;47.918;8.112;2022-10-16T07:40:47;91072.50;;;13.07;80.25
69909;BME280;57190;47.918;8.112;2022-10-16T07:43:13;91070.63;;;13.07;80.48
69909;BME280;57190;47.918;8.112;2022-10-16T07:45:46;91079.19;;;13.09;80.55
69909;BME280;57190;47.918;8.112;2022-10-16T07:48:13;91081.88;;;13.09;80.53
69909;BME280;57190;47.918;8.112;2022-10-16T07:50:39;91083.72;;;13.14;80.47
69909;BME280;57190;47.918;8.112;2022-10-16T07:53:04;91081.03;;;13.14;81.47
69909;BME280;57190;47.918;8.112;2022-10-16T07:55:30;91092.28;;;13.16;82.38
69909;BME280;57190;47.918;8.112;2022-10-16T07:57:55;91091.41;;;13.26;82.34
69909;BME280;57190;47.918;8.112;2022-10-16T08:00:21;91087.06;;;13.35;82.27
69909;BME280;57190;47.918;8.112;2022-10-16T08:02:46;91092.06;;;13.52;81.89
69909;BME280;57190;47.918;8.112;2022-10-16T08:05:12;91090.38;;;13.61;82.19
69909;BME280;57190;47.918;8.112;2022-10-16T08:07:37;91099.44;;;13.71;82.21
69909;BME280;57190;47.918;8.112;2022-10-16T08:10:03;91099.59;;;13.84;80.26
69909;BME280;57190;47.918;8.112;2022-10-16T08:12:29;91101.72;;;13.88;79.78
69909;BME280;57190;47.918;8.112;2022-10-16T08:14:54;91110.81;;;13.92;79.00
69909;BME280;57190;47.918;8.112;2022-10-16T08:17:20;91109.97;;;13.96;79.49
69909;BME280;57190;47.918;8.112;2022-10-16T08:19:46;91104.59;;;13.96;80.10
69909;BME280;57190;47.918;8.112;2022-10-16T08:22:13;91106.16;;;14.03;80.24
69909;BME280;57190;47.918;8.112;2022-10-16T08:24:38;91107.75;;;14.04;81.20
69909;BME280;57190;47.918;8.112;2022-10-16T08:27:04;91109.06;;;14.06;81.79
69909;BME280;57190;47.918;8.112;2022-10-16T08:29:29;91121.41;;;14.07;82.06
69909;BME280;57190;47.918;8.112;2022-10-16T08:31:55;91128.84;;;14.15;82.62
69909;BME280;57190;47.918;8.112;2022-10-16T08:34:20;91132.19;;;14.31;81.90
69909;BME280;57190;47.918;8.112;2022-10-16T08:36:46;91127.22;;;14.44;81.09
69909;BME280;57190;47.918;8.112;2022-10-16T08:39:12;91127.22;;;14.73;80.33
69909;BME280;57190;47.918;8.112;2022-10-16T08:47:44;91129.72;;;15.95;75.29
69909;BME280;57190;47.918;8.112;2022-10-16T08:50:14;91132.41;;;16.28;74.68
69909;BME280;57190;47.918;8.112;2022-10-16T08:52:43;91133.28;;;16.56;75.20
69909;BME280;57190;47.918;8.112;2022-10-16T08:55:35;91122.81;;;16.69;75.08
69909;BME280;57190;47.918;8.112;2022-10-16T08:58:16;91123.38;;;16.99;75.04
69909;BME280;57190;47.918;8.112;2022-10-16T09:00:46;91121.25;;;18.11;71.56
69909;BME280;57190;47.918;8.112;2022-10-16T09:04:05;91123.81;;;17.56;72.26
69909;BME280;57190;47.918;8.112;2022-10-16T09:06:43;91127.03;;;17.17;72.56
69909;BME280;57190;47.918;8.112;2022-10-16T09:17:00;91127.59;;;16.25;77.42
69909;BME280;57190;47.918;8.112;2022-10-16T09:19:42;91125.13;;;16.28;77.24
69909;BME280;57190;47.918;8.112;2022-10-16T09:22:13;91123.34;;;16.38;76.98
69909;BME280;57190;47.918;8.112;2022-10-16T09:24:39;91135.97;;;16.56;76.65
69909;BME280;57190;47.918;8.112;2022-10-16T09:27:10;91137.81;;;17.03;75.45
69909;BME280;57190;47.918;8.112;2022-10-16T09:29:36;91131.38;;;17.68;72.78
69909;BME280;57190;47.918;8.112;2022-10-16T09:32:12;91138.94;;;17.66;69.82
69909;BME280;57190;47.918;8.112;2022-10-16T09:34:42;91145.97;;;17.53;70.64
69909;BME280;57190;47.918;8.112;2022-10-16T09:37:12;91155.16;;;17.38;70.46
69909;BME280;57190;47.918;8.112;2022-10-16T09:39:47;91149.00;;;17.24;72.62
69909;BME280;57190;47.918;8.112;2022-10-16T09:42:18;91157.91;;;17.10;73.97
69909;BME280;57190;47.918;8.112;2022-10-16T09:44:50;91149.81;;;16.96;74.54
69909;BME280;57190;47.918;8.112;2022-10-16T09:47:23;91150.72;;;17.06;73.31
69909;BME280;57190;47.918;8.112;2022-10-16T09:50:04;91158.19;;;17.37;72.98
69909;BME280;57190;47.918;8.112;2022-10-16T09:52:32;91157.13;;;17.74;70.61
69909;BME280;57190;47.918;8.112;2022-10-16T09:55:12;91148.25;;;18.33;68.63
69909;BME280;57190;47.918;8.112;2022-10-16T09:57:52;91157.03;;;18.16;68.76
69909;BME280;57190;47.918;8.112;2022-10-16T10:00:18;91155.84;;;18.31;69.74
69909;BME280;57190;47.918;8.112;2022-10-16T10:02:44;91154.25;;;18.30;69.46
69909;BME280;57190;47.918;8.112;2022-10-16T10:05:23;91155.81;;;18.22;63.80
69909;BME280;57190;47.918;8.112;2022-10-16T10:08:02;91161.38;;;18.26;66.89
69909;BME280;57190;47.918;8.112;2022-10-16T10:10:33;91162.44;;;18.16;66.27
69909;BME280;57190;47.918;8.112;2022-10-16T10:13:00;91160.34;;;18.13;67.55
69909;BME280;57190;47.918;8.112;2022-10-16T10:15:28;91158.41;;;18.14;66.86
69909;BME280;57190;47.918;8.112;2022-10-16T10:17:58;91164.06;;;18.03;67.10
69909;BME280;57190;47.918;8.112;2022-10-16T10:22:49;91163.69;;;17.96;67.71
69909;BME280;57190;47.918;8.112;2022-10-16T10:28:25;91158.00;;;17.98;66.72
69909;BME280;57190;47.918;8.112;2022-10-16T10:31:04;91164.84;;;18.04;68.24
69909;BME280;57190;47.918;8.112;2022-10-16T10:43:52;91163.66;;;18.56;67.22
69909;BME280;57190;47.918;8.112;2022-10-16T10:55:08;91156.94;;;18.76;66.55
69909;BME280;57190;47.918;8.112;2022-10-16T11:00:30;91145.41;;;19.24;63.96
69909;BME280;57190;47.918;8.112;2022-10-16T11:03:16;91146.13;;;19.47;61.16
69909;BME280;57190;47.918;8.112;2022-10-16T11:06:14;91149.81;;;19.60;61.45
69909;BME280;57190;47.918;8.112;2022-10-16T11:09:36;91140.25;;;19.54;58.21
69909;BME280;57190;47.918;8.112;2022-10-16T11:11:41;91148.19;;;19.51;55.25
69909;BME280;57190;47.918;8.112;2022-10-16T11:14:38;91144.88;;;19.71;55.72
69909;BME280;57190;47.918;8.112;2022-10-16T11:17:06;91143.47;;;19.83;54.94
69909;BME280;57190;47.918;8.112;2022-10-16T11:19:41;91139.84;;;19.96;53.16
69909;BME280;57190;47.918;8.112;2022-10-16T11:24:47;91139.38;;;20.38;52.61
69909;BME280;57190;47.918;8.112;2022-10-16T11:27:17;91131.88;;;20.35;53.16
69909;BME280;57190;47.918;8.112;2022-10-16T11:29:53;91146.38;;;20.13;50.75
69909;BME280;57190;47.918;8.112;2022-10-16T11:32:36;91143.53;;;20.00;51.82
69909;BME280;57190;47.918;8.112;2022-10-16T11:35:19;91141.41;;;19.79;50.87
69909;BME280;57190;47.918;8.112;2022-10-16T11:37:49;91133.28;;;19.71;48.33
69909;BME280;57190;47.918;8.112;2022-10-16T11:40:37;91126.72;;;19.63;52.47
69909;BME280;57190;47.918;8.112;2022-10-16T11:43:38;91136.72;;;19.45;51.05
69909;BME280;57190;47.918;8.112;2022-10-16T11:46:13;91127.28;;;19.33;51.50
69909;BME280;57190;47.918;8.112;2022-10-16T11:48:48;91131.59;;;19.35;52.21
69909;BME280;57190;47.918;8.112;2022-10-16T11:51:39;91128.22;;;19.29;55.31
69909;BME280;57190;47.918;8.112;2022-10-16T11:54:19;91126.53;;;19.42;55.66
69909;BME280;57190;47.918;8.112;2022-10-16T11:56:48;91119.84;;;19.48;55.55
69909;BME280;57190;47.918;8.112;2022-10-16T11:59:46;91124.19;;;19.67;55.13
69909;BME280;57190;47.918;8.112;2022-10-16T12:04:54;91125.03;;;20.02;51.64
69909;BME280;57190;47.918;8.112;2022-10-16T12:07:32;91126.81;;;20.16;50.83
69909;BME280;57190;47.918;8.112;2022-10-16T12:10:11;91125.69;;;20.17;49.60
69909;BME280;57190;47.918;8.112;2022-10-16T12:12:43;91129.50;;;20.16;49.83
69909;BME280;57190;47.918;8.112;2022-10-16T12:15:25;91125.19;;;20.15;50.21
69909;BME280;57190;47.918;8.112;2022-10-16T12:17:51;91125.19;;;20.15;51.24
69909;BME280;57190;47.918;8.112;2022-10-16T12:20:19;91120.56;;;20.15;50.49
69909;BME280;57190;47.918;8.112;2022-10-16T12:23:02;91133.16;;;20.20;49.70
69909;BME280;57190;47.918;8.112;2022-10-16T12:25:39;91133.16;;;20.11;50.07
69909;BME280;57190;47.918;8.112;2022-10-16T12:30:40;91131.59;;;20.01;52.07
69909;BME280;57190;47.918;8.112;2022-10-16T12:35:51;91128.06;;;20.18;50.66
69909;BME280;57190;47.918;8.112;2022-10-16T12:38:19;91122.47;;;20.23;49.50
69909;BME280;57190;47.918;8.112;2022-10-16T12:40:56;91120.09;;;20.22;50.33
69909;BME280;57190;47.918;8.112;2022-10-16T12:43:27;91122.47;;;20.23;50.49
69909;BME280;57190;47.918;8.112;2022-10-16T12:48:34;91124.06;;;20.24;47.89
69909;BME280;57190;47.918;8.112;2022-10-16T12:51:24;91111.97;;;20.31;46.91
69909;BME280;57190;47.918;8.112;2022-10-16T12:59:24;91126.31;;;20.14;50.48
69909;BME280;57190;47.918;8.112;2022-10-16T13:28:49;91116.09;;;20.28;50.55
69909;BME280;57190;47.918;8.112;2022-10-16T13:31:25;91120.44;;;20.20;50.40
69909;BME280;57190;47.918;8.112;2022-10-16T13:33:55;91122.16;;;20.16;51.09
69909;BME280;57190;47.918;8.112;2022-10-16T13:36:29;91121.84;;;20.09;50.39
69909;BME280;57190;47.918;8.112;2022-10-16T13:39:22;91125.50;;;20.04;50.66
69909;BME280;57190;47.918;8.112;2022-10-16T13:42:25;91121.69;;;20.05;50.27
69909;BME280;57190;47.918;8.112;2022-10-16T13:44:54;91129.97;;;20.09;50.53
69909;BME280;57190;47.918;8.112;2022-10-16T13:47:24;91123.31;;;19.98;49.91
69909;BME280;57190;47.918;8.112;2022-10-16T13:50:15;91123.91;;;19.86;51.69
69909;BME280;57190;47.918;8.112;2022-10-16T13:52:41;91125.50;;;19.87;51.92
69909;BME280;57190;47.918;8.112;2022-10-16T13:55:14;91127.25;;;19.83;51.03
69909;BME280;57190;47.918;8.112;2022-10-16T13:57:41;91119.91;;;19.74;50.73
69909;BME280;57190;47.918;8.112;2022-10-16T14:00:24;91132.31;;;19.67;49.96
69909;BME280;57190;47.918;8.112;2022-10-16T14:02:57;91130.38;;;19.58;50.77
69909;BME280;57190;47.918;8.112;2022-10-16T14:05:23;91132.31;;;19.58;50.98
69909;BME280;57190;47.918;8.112;2022-10-16T14:07:50;91128.31;;;19.55;50.31
69909;BME280;57190;47.918;8.112;2022-10-16T14:10:47;91145.50;;;19.51;51.30
69909;BME280;57190;47.918;8.112;2022-10-16T14:13:17;91138.00;;;19.56;50.47
69909;BME280;57190;47.918;8.112;2022-10-16T14:15:47;91143.13;;;19.67;51.27
69909;BME280;57190;47.918;8.112;2022-10-16T14:18:20;91139.75;;;19.61;48.55
69909;BME280;57190;47.918;8.112;2022-10-16T14:20:48;91144.72;;;19.68;49.16
69909;BME280;57190;47.918;8.112;2022-10-16T14:23:33;91135.66;;;19.72;49.64
69909;BME280;57190;47.918;8.112;2022-10-16T14:28:38;91135.50;;;19.60;48.58
69909;BME280;57190;47.918;8.112;2022-10-16T14:31:37;91152.63;;;19.46;48.87
69909;BME280;57190;47.918;8.112;2022-10-16T14:34:03;91147.38;;;19.50;49.52
69909;BME280;57190;47.918;8.112;2022-10-16T14:36:30;91155.16;;;19.43;49.64
69909;BME280;57190;47.918;8.112;2022-10-16T14:39:19;91150.84;;;19.33;51.30
69909;BME280;57190;47.918;8.112;2022-10-16T14:41:48;91155.94;;;19.35;50.03
69909;BME280;57190;47.918;8.112;2022-10-16T14:44:14;91149.88;;;19.29;50.29
69909;BME280;57190;47.918;8.112;2022-10-16T14:46:43;91149.69;;;19.16;51.10
69909;BME280;57190;47.918;8.112;2022-10-16T14:51:38;91157.97;;;19.20;52.32
69909;BME280;57190;47.918;8.112;2022-10-16T14:54:08;91144.88;;;19.05;50.51
69909;BME280;57190;47.918;8.112;2022-10-16T14:56:47;91150.09;;;19.01;50.17